• Join FlightAware (Why Join?)
  • Login
  • US Flag 
10:58PM EDT


 

Airport Tracker/Info


-or-


 

Live Flight TrackerFlight Track Log ✈ AWE3202 ✈ 03-May-2013 ✈ KDCA - KMHT

Flight Track Log - Related Links

Times and Time Zones

All times are in EDT time to prevent confusion due to time zone crossing. See the AWE3202 flight status page for this flight to view local times or setup timezone preferences in your user account.

Time Position Orientation Groundspeed Altitude Reporting Facility
EDT Latitude Longitude Course Direction KTS MPH feet Rate Location/Type
10:21PM 38.8167 -77.0333 38° Northeast 152 175 1,400  Level Potomac TRACON
10:23PM 38.9885 -76.6345 67° East  Level FlightAware Approximate
10:23PM 38.6986 -77.0200 175° South 216 249 6,000  Level Washington Center
10:24PM 39.0398 -76.5005 63° Northeast  Level FlightAware Approximate
10:24PM 38.7056 -76.9406 84° East 182 209 8,800  Level Washington Center
10:25PM 39.0946 -76.3683 61° Northeast  Level FlightAware Approximate
10:25PM 38.7850 -76.9206 11° North 151 174 11,700  Level Washington Center
10:26PM 39.1342 -76.2325 38° Northeast  Level FlightAware Approximate
10:26PM 38.8381 -76.8442 48° Northeast 222 255 14,400  Level Washington Center
10:27PM 38.8869 -76.7517 56° Northeast 270 311 16,500 1,740 Climbing Washington Center
10:28PM 38.9378 -76.6511 57° Northeast 306 352 17,900 1,380 Climbing Washington Center
10:29PM 38.9931 -76.5369 58° Northeast 337 388 19,400 1,020 Climbing Washington Center
10:30PM 39.0500 -76.4256 57° Northeast 364 419 20,000 780 Climbing Washington Center
10:31PM 39.1008 -76.3083 61° Northeast 370 426 21,000 1,440 Climbing Washington Center
10:32PM 39.1286 -76.1722 75° East 375 432 22,900 960 Climbing Washington Center
10:33PM 39.1606 -76.0333 73° East 388 447 23,000 540 Climbing Washington Center
10:34PM 39.1903 -75.8994 74° East 388 447 24,000 1,200 Climbing Washington Center
10:35PM 39.2653 -75.7872 49° Northeast 388 447 25,400 1,260 Climbing Washington Center
10:36PM 39.3467 -75.6856 44° Northeast 394 453 26,600 1,500 Climbing Washington Center
10:37PM 39.4239 -75.5781 47° Northeast 399 459 28,500 1,140 Climbing Washington Center
10:38PM 39.5050 -75.4786 43° Northeast 399 459 29,000 240 Climbing Washington Center
10:39PM 39.5864 -75.3708 46° Northeast 399 459 29,000 240 Level Washington Center
10:40PM 39.6631 -75.2681 46° Northeast 399 459 29,500 900 Climbing Washington Center
10:41PM 39.7397 -75.1625 47° Northeast 404 465 30,900 660 Climbing Washington Center
10:42PM 39.8236 -75.0389 49° Northeast 396 456 31,000  Climbing New York Center
10:43PM 39.9006 -74.9297 47° Northeast 396 456 31,000  Level New York Center
10:44PM 39.9861 -74.8075 48° Northeast 409 471 31,000  Level New York Center
10:45PM 40.0558 -74.7194 44° Northeast 405 466 31,000  Level New York Center
10:46PM 40.1261 -74.6147 49° Northeast 399 459 31,000  Level New York Center
10:47PM 40.2122 -74.5272 38° Northeast 384 442 31,000  Level New York Center
10:48PM 40.3217 -74.4922 14° North 358 412 31,000  Level New York Center
10:49PM 40.4247 -74.4625 12° North 363 418 31,000  Level New York Center
10:50PM 40.5278 -74.4353 11° North 368 423 31,000  Level New York Center
10:51PM 40.6286 -74.4078 12° North 368 423 31,000  Level New York Center
10:52PM 40.7294 -74.3775 13° North 368 423 31,000  Level New York Center
10:53PM 40.8303 -74.3500 12° North 373 429 31,000  Level New York Center
10:55PM 41.0431 -74.2978 10° North 372 428 31,000  Level Boston Center
10:56PM 41.1436 -74.2675 13° North 372 428 31,000  Level Boston Center
10:57PM 41.2481 -74.2375 12° North 372 428 31,000  Level Boston Center
10:58PM 41.3467 -74.2069 13° North 372 428 31,000  Level Boston Center
10:59PM 41.4514 -74.1767 12° North 372 428 31,000  Level Boston Center
11:00PM 41.5558 -74.1489 11° North 377 434 31,000  Level Boston Center
11:01PM 41.6564 -74.1183 13° North 372 428 31,000  Level Boston Center
11:02PM 41.7589 -74.0903 12° North 372 428 31,000  Level Boston Center
11:03PM 41.8678 -74.0625 11° North 372 428 31,000 -300 Level Boston Center
11:04PM 41.9642 -74.0147 20° North 372 428 30,500 -780 Descending Boston Center
11:05PM 42.0283 -73.9019 53° Northeast 356 410 29,500 -1,080 Descending Boston Center
11:06PM 42.0861 -73.7800 57° Northeast 368 423 28,400 -1,140 Descending Boston Center
11:07PM 42.1417 -73.6636 57° Northeast 389 448 27,300 -1,080 Descending Boston Center
11:08PM 42.1969 -73.5497 57° Northeast 389 448 26,300 -1,080 Descending Boston Center
11:09PM 42.2544 -73.4331 56° Northeast 378 435 25,200 -1,080 Descending Boston Center
11:10PM 42.3117 -73.3161 56° Northeast 360 414 24,200 -1,020 Descending Boston Center
11:11PM 42.3625 -73.2017 59° Northeast 370 426 23,200 -1,020 Descending Boston Center
11:12PM 42.4194 -73.0842 57° Northeast 360 414 22,200 -960 Descending Boston Center
11:13PM 42.4700 -72.9750 58° Northeast 348 400 21,300 -960 Descending Boston Center
11:14PM 42.5206 -72.8739 56° Northeast 338 389 20,300 -960 Descending Boston Center
11:15PM 42.5689 -72.7642 59° Northeast 331 381 19,400 -1,140 Descending Boston Center
11:16PM 42.6147 -72.6800 53° Northeast 322 371 18,100 -1,200 Descending Boston Center
11:17PM 42.6628 -72.5783 57° Northeast 322 371 17,000 -1,320 Descending Boston Center
11:18PM 42.7108 -72.4739 58° Northeast 322 371 15,500 -1,500 Descending Boston Center
11:19PM 42.7567 -72.3722 58° Northeast 322 371 14,000 -1,500 Descending Boston Center
11:20PM 42.7942 -72.2675 64° Northeast 322 371 12,500 -1,500 Descending Boston Center
11:21PM 42.8044 -72.1486 83° East 294 338 11,100 -1,500 Descending Boston Center
11:22PM 42.8125 -72.0525 83° East 284 327 9,600 -1,740 Descending Boston Center
11:23PM 42.8369 -71.9503 72° East 268 308 7,700 -1,740 Descending Boston Center
11:24PM 42.8658 -71.8708 64° Northeast 263 303 6,200 -1,440 Descending Boston Center
11:25PM 42.8986 -71.7769 64° Northeast 256 295 4,900 -1,080 Descending Boston Center
11:26PM 42.9253 -71.7000 65° Northeast 249 287 4,100 -960 Descending Boston Center
11:27PM 42.9561 -71.6258 60° Northeast 214 246 3,000 -1,200 Descending Boston Center
11:28PM 42.9786 -71.5631 64° Northeast 203 234 1,800 -660 Descending Boston Center
11:29PM 43.0050 -71.4975 61° Northeast 185 213 1,700 -120 Descending Boston Center